Time;durP1;ratioP1;P1;durP2;ratioP2;P2;SDS_P1;SDS_P2;PMS_P1;PMS_P2;Temp;Humidity;BMP_temperature;BMP_pressure;BME280_temperature;BME280_humidity;BME280_pressure;Samples;Min_cycle;Max_cycle;Signal;HPM_P1;HPM_P2
2022/07/18 00:00:17;;;;;;;8.43;3.38;;;;;;;20.35;100.00;101155.91;5094817;28;20036;-87
2022/07/18 00:02:44;;;;;;;8.45;3.17;;;;;;;20.53;100.00;101151.03;5093184;28;20048;-87
2022/07/18 00:05:11;;;;;;;8.65;3.28;;;;;;;20.66;100.00;101156.34;5092404;28;20126;-87
2022/07/18 00:07:37;;;;;;;8.80;3.67;;;;;;;20.61;100.00;101147.81;5085982;28;20128;-87
2022/07/18 00:10:05;;;;;;;11.77;3.45;;;;;;;20.59;100.00;101147.06;5091014;28;20051;-88
2022/07/18 00:12:31;;;;;;;8.35;3.30;;;;;;;20.54;100.00;101146.56;5084480;28;20047;-87
2022/07/18 00:14:58;;;;;;;8.98;3.58;;;;;;;20.59;100.00;101163.03;5092874;28;20048;-87
2022/07/18 00:17:25;;;;;;;8.75;3.60;;;;;;;20.54;100.00;101143.91;5092080;28;20121;-87
2022/07/18 00:19:52;;;;;;;8.90;3.65;;;;;;;20.56;100.00;101142.00;5093177;28;20070;-87
2022/07/18 00:22:19;;;;;;;7.93;3.20;;;;;;;20.59;100.00;101150.63;5092697;28;20050;-87
2022/07/18 00:24:46;;;;;;;8.75;3.08;;;;;;;20.47;100.00;101128.41;5083601;28;20052;-87
2022/07/18 00:27:12;;;;;;;6.82;2.80;;;;;;;20.61;100.00;101147.81;5092243;28;20044;-87
2022/07/18 00:29:40;;;;;;;7.47;3.10;;;;;;;20.61;100.00;101164.69;5089863;28;20055;-87
2022/07/18 00:32:08;;;;;;;9.27;3.47;;;;;;;20.38;100.00;101160.13;5092008;28;20391;-87
2022/07/18 00:34:35;;;;;;;7.63;3.20;;;;;;;20.28;100.00;101162.63;5092273;28;20047;-87
2022/07/18 00:37:02;;;;;;;8.90;3.60;;;;;;;20.19;100.00;101173.91;5092865;28;20048;-87
2022/07/18 00:39:30;;;;;;;8.98;3.60;;;;;;;20.09;100.00;101161.25;5083271;28;20053;-87
2022/07/18 00:41:57;;;;;;;8.07;3.38;;;;;;;20.26;100.00;101185.81;5094135;28;20054;-88
2022/07/18 00:44:26;;;;;;;10.30;3.72;;;;;;;20.08;100.00;101186.16;5093112;28;20048;-87
2022/07/18 00:46:55;;;;;;;8.68;3.80;;;;;;;20.03;100.00;101169.69;5093985;28;20048;-87
2022/07/18 00:49:22;;;;;;;9.10;3.70;;;;;;;20.05;100.00;101161.59;5091316;28;20047;-87
2022/07/18 00:51:50;;;;;;;8.38;3.53;;;;;;;20.01;100.00;101168.94;5092104;28;20052;-87
2022/07/18 00:54:17;;;;;;;8.13;3.30;;;;;;;20.14;100.00;101154.78;5092413;28;20434;-88
2022/07/18 00:56:45;;;;;;;7.95;2.95;;;;;;;20.27;100.00;101163.56;5094072;28;20055;-88
2022/07/18 00:59:12;;;;;;;8.98;3.80;;;;;;;20.18;100.00;101146.47;5093460;28;20048;-87
2022/07/18 01:01:43;;;;;;;9.10;3.47;;;;;;;20.29;100.00;101164.28;5092469;28;20453;-88
2022/07/18 01:04:12;;;;;;;8.63;3.30;;;;;;;20.31;100.00;101143.78;5091684;28;20500;-87
2022/07/18 01:06:39;;;;;;;8.00;3.00;;;;;;;20.42;100.00;101161.63;5092571;28;20402;-87
2022/07/18 01:09:06;;;;;;;7.97;3.17;;;;;;;20.27;100.00;101153.78;5091760;28;20051;-88
2022/07/18 01:11:34;;;;;;;9.07;3.78;;;;;;;20.27;100.00;101160.91;5091704;28;20051;-87
2022/07/18 01:14:03;;;;;;;8.60;3.33;;;;;;;20.15;100.00;101162.66;5086844;28;20051;-88
2022/07/18 01:16:30;;;;;;;8.65;3.40;;;;;;;20.08;100.00;101164.03;5092783;28;20051;-88
2022/07/18 01:18:57;;;;;;;8.35;3.58;;;;;;;19.74;100.00;101171.69;5079747;28;20131;-87
2022/07/18 01:21:24;;;;;;;9.70;4.35;;;;;;;19.85;100.00;101177.13;5089964;28;20766;-87
2022/07/18 01:23:51;;;;;;;7.88;3.38;;;;;;;19.90;100.00;101164.38;5088305;28;20062;-87
2022/07/18 01:26:18;;;;;;;7.93;3.55;;;;;;;19.82;100.00;101168.53;5091437;28;20051;-87
2022/07/18 01:28:46;;;;;;;8.63;3.70;;;;;;;20.01;100.00;101178.69;5091486;28;20460;-87
2022/07/18 01:31:14;;;;;;;8.93;3.83;;;;;;;19.96;100.00;101180.84;5096059;28;20493;-87
2022/07/18 01:33:40;;;;;;;8.25;3.50;;;;;;;19.77;100.00;101168.84;5088606;28;20040;-87
2022/07/18 01:36:08;;;;;;;10.25;3.90;;;;;;;20.08;100.00;101182.66;5092038;28;20394;-87
2022/07/18 01:38:36;;;;;;;8.48;3.28;;;;;;;20.08;100.00;101174.69;5091080;28;20048;-87
2022/07/18 01:41:03;;;;;;;7.53;3.20;;;;;;;20.11;100.00;101198.34;5090256;28;20109;-86
2022/07/18 01:43:29;;;;;;;9.13;3.70;;;;;;;20.00;100.00;101171.69;5089248;28;20051;-86
2022/07/18 01:45:56;;;;;;;10.27;3.83;;;;;;;20.05;100.00;101177.53;5091162;28;20052;-87
2022/07/18 01:48:23;;;;;;;9.02;3.42;;;;;;;20.01;100.00;101165.41;5091310;28;20405;-87
2022/07/18 01:50:51;;;;;;;9.18;3.72;;;;;;;20.06;100.00;101169.47;5091163;28;20076;-87
2022/07/18 01:53:18;;;;;;;6.85;2.67;;;;;;;20.09;100.00;101165.72;5091178;28;20055;-87
2022/07/18 01:55:45;;;;;;;8.95;4.03;;;;;;;20.12;100.00;101175.31;5090814;28;20174;-86
2022/07/18 01:58:12;;;;;;;7.97;3.10;;;;;;;20.15;100.00;101154.69;5090575;28;20490;-86
2022/07/18 02:00:38;;;;;;;10.13;3.15;;;;;;;19.98;100.00;101161.19;5093087;28;20066;-88
2022/07/18 02:03:05;;;;;;;8.00;3.35;;;;;;;20.08;100.00;101172.03;5090505;28;20048;-88
2022/07/18 02:05:32;;;;;;;8.75;3.40;;;;;;;19.97;100.00;101161.28;5091194;28;20359;-87
2022/07/18 02:07:59;;;;;;;7.88;3.00;;;;;;;19.73;100.00;101168.19;5089775;28;20389;-87
2022/07/18 02:10:26;;;;;;;7.78;3.20;;;;;;;19.53;100.00;101163.41;5079930;28;20050;-87
2022/07/18 02:12:52;;;;;;;9.00;3.60;;;;;;;19.46;100.00;101159.44;5079004;28;20394;-88
2022/07/18 02:15:19;;;;;;;7.97;3.15;;;;;;;19.62;100.00;101168.06;5089527;28;20052;-87
2022/07/18 02:17:46;;;;;;;9.07;2.83;;;;;;;19.75;100.00;101159.28;5086672;28;20406;-87
2022/07/18 02:20:14;;;;;;;8.13;3.42;;;;;;;19.71;100.00;101171.91;5092050;28;20486;-87
2022/07/18 02:22:41;;;;;;;8.38;3.33;;;;;;;19.80;100.00;101162.47;5091542;28;20044;-87
2022/07/18 02:25:09;;;;;;;7.60;3.05;;;;;;;19.87;100.00;101158.44;5080045;28;20068;-87
2022/07/18 02:27:36;;;;;;;9.82;3.60;;;;;;;19.62;100.00;101136.19;5071968;28;20135;-87
2022/07/18 02:30:05;;;;;;;8.15;3.00;;;;;;;19.63;100.00;101150.31;5090007;28;20543;-87
2022/07/18 02:32:31;;;;;;;7.43;3.17;;;;;;;19.56;100.00;101146.41;5090758;28;20131;-87
2022/07/18 02:34:58;;;;;;;10.70;3.20;;;;;;;19.41;100.00;101156.28;5082185;28;20048;-87
2022/07/18 02:37:25;;;;;;;10.43;3.72;;;;;;;19.44;100.00;101140.09;5082131;28;20131;-87
2022/07/18 02:39:52;;;;;;;9.45;3.78;;;;;;;19.43;100.00;101136.63;5080415;28;20608;-87
2022/07/18 02:42:19;;;;;;;8.48;3.58;;;;;;;19.44;100.00;101151.59;5091887;28;20045;-87
2022/07/18 02:44:46;;;;;;;9.07;3.88;;;;;;;19.31;100.00;101148.06;5090934;28;20048;-87
2022/07/18 02:47:12;;;;;;;9.63;3.50;;;;;;;19.09;100.00;101184.03;5090855;28;20048;-87
2022/07/18 02:49:39;;;;;;;9.18;3.75;;;;;;;18.90;100.00;101154.34;5090272;28;20050;-87
2022/07/18 02:52:08;;;;;;;8.77;4.07;;;;;;;18.95;100.00;101166.34;5091149;28;20054;-87
2022/07/18 02:54:37;;;;;;;9.45;4.13;;;;;;;19.14;100.00;101173.09;5093058;28;20036;-87
2022/07/18 02:57:04;;;;;;;9.07;3.88;;;;;;;19.30;100.00;101171.13;5094005;28;20055;-87
2022/07/18 02:59:31;;;;;;;9.90;4.00;;;;;;;19.23;100.00;101187.53;5093776;28;20052;-86
2022/07/18 03:01:58;;;;;;;10.23;3.97;;;;;;;19.09;100.00;101168.09;5094190;28;20059;-86
2022/07/18 03:04:25;;;;;;;8.90;3.53;;;;;;;19.34;100.00;101185.03;5090171;28;20050;-87
2022/07/18 03:06:53;;;;;;;9.20;3.33;;;;;;;19.52;100.00;101173.16;5094355;28;20056;-87
2022/07/18 03:09:20;;;;;;;8.82;3.67;;;;;;;19.39;100.00;101160.81;5093267;28;20040;-87
2022/07/18 03:11:47;;;;;;;9.32;3.30;;;;;;;19.47;100.00;101174.44;5095381;28;20052;-87
2022/07/18 03:14:14;;;;;;;8.48;3.40;;;;;;;19.44;100.00;101171.97;5093607;28;20596;-87
2022/07/18 03:16:41;;;;;;;9.05;3.10;;;;;;;19.64;100.00;101199.84;5094446;28;20052;-87
2022/07/18 03:19:08;;;;;;;7.90;3.28;;;;;;;19.58;100.00;101187.81;5094911;28;20043;-87
2022/07/18 03:21:34;;;;;;;9.55;4.20;;;;;;;19.45;100.00;101185.16;5095087;28;20076;-89
2022/07/18 03:24:01;;;;;;;8.77;3.45;;;;;;;19.47;100.00;101188.53;5094770;28;20048;-90
2022/07/18 03:26:28;;;;;;;9.43;3.92;;;;;;;19.49;100.00;101191.94;5094917;28;20047;-90
2022/07/18 03:28:55;;;;;;;8.50;3.08;;;;;;;19.49;100.00;101180.47;5095054;28;20081;-90
2022/07/18 03:31:22;;;;;;;8.10;2.90;;;;;;;19.48;100.00;101190.25;5094713;28;20040;-89
2022/07/18 03:33:49;;;;;;;7.53;3.00;;;;;;;19.37;100.00;101192.81;5088326;28;20047;-89
2022/07/18 03:36:16;;;;;;;8.85;3.78;;;;;;;19.30;100.00;101181.75;5091044;28;20044;-89
2022/07/18 03:38:43;;;;;;;8.45;3.25;;;;;;;19.21;100.00;101182.38;5090821;28;20048;-89
2022/07/18 03:41:11;;;;;;;8.38;3.60;;;;;;;19.38;100.00;101189.19;5086353;28;20456;-88
2022/07/18 03:43:39;;;;;;;8.75;3.67;;;;;;;19.36;100.00;101196.41;5094610;28;20048;-88
2022/07/18 03:46:07;;;;;;;9.15;3.65;;;;;;;19.17;100.00;101194.13;5091263;28;20134;-88
2022/07/18 03:48:35;;;;;;;11.85;3.85;;;;;;;19.27;100.00;101197.88;5094339;28;20084;-87
2022/07/18 03:51:03;;;;;;;10.10;3.78;;;;;;;19.00;100.00;101176.69;5093825;28;20082;-88
2022/07/18 03:53:31;;;;;;;8.20;3.65;;;;;;;19.00;100.00;101167.84;5093184;28;20052;-88
2022/07/18 03:55:58;;;;;;;9.15;3.78;;;;;;;19.11;100.00;101174.16;5093636;28;20058;-88
2022/07/18 03:58:25;;;;;;;7.90;3.28;;;;;;;19.13;100.00;101179.34;5094445;28;20383;-89
2022/07/18 04:00:52;;;;;;;8.88;3.58;;;;;;;19.04;100.00;101169.38;5079806;28;20127;-88
2022/07/18 04:03:20;;;;;;;8.63;3.42;;;;;;;18.94;100.00;101171.75;5083144;28;20048;-88
2022/07/18 04:05:47;;;;;;;10.38;3.42;;;;;;;18.97;100.00;101175.06;5090488;28;20099;-88
2022/07/18 04:08:15;;;;;;;7.70;3.13;;;;;;;19.09;100.00;101183.19;5093861;28;20056;-88
2022/07/18 04:10:43;;;;;;;8.55;3.33;;;;;;;18.83;100.00;101167.16;5093804;28;20048;-88
2022/07/18 04:13:09;;;;;;;8.52;3.47;;;;;;;18.97;100.00;101179.53;5093630;28;20454;-89
2022/07/18 04:15:36;;;;;;;8.23;3.28;;;;;;;18.87;100.00;101167.81;5095399;28;20052;-89
2022/07/18 04:18:05;;;;;;;8.27;3.33;;;;;;;18.89;100.00;101179.16;5093561;28;20409;-89
2022/07/18 04:20:33;;;;;;;9.18;3.47;;;;;;;18.80;100.00;101172.63;5093973;28;20105;-89
2022/07/18 04:23:02;;;;;;;8.48;3.33;;;;;;;18.77;100.00;101162.25;5093451;28;20048;-88
2022/07/18 04:25:35;;;;;;;8.52;3.58;;;;;;;18.93;100.00;101162.97;5095322;28;20503;-89
2022/07/18 04:28:02;;;;;;;;;;;;;;;19.26;100.00;101171.41;5092404;28;20062;-89
2022/07/18 04:30:29;;;;;;;8.65;3.38;;;;;;;19.04;100.00;101175.50;5090572;28;19931;-89
2022/07/18 04:32:57;;;;;;;8.50;3.40;;;;;;;18.84;100.00;101174.19;5093131;28;20052;-88
2022/07/18 04:35:24;;;;;;;7.90;3.20;;;;;;;18.79;100.00;101166.47;5094772;28;20040;-89
2022/07/18 04:37:51;;;;;;;7.75;3.15;;;;;;;18.83;100.00;101168.97;5093340;28;20052;-89
2022/07/18 04:40:18;;;;;;;8.43;3.45;;;;;;;18.93;100.00;101154.16;5092693;28;20537;-90
2022/07/18 04:42:46;;;;;;;8.38;3.20;;;;;;;18.99;100.00;101156.38;5088756;28;20056;-89
2022/07/18 04:45:13;;;;;;;8.27;3.60;;;;;;;19.01;100.00;101140.38;5088156;28;20400;-89
2022/07/18 04:47:40;;;;;;;8.85;3.75;;;;;;;19.17;100.00;101154.31;5088320;28;20050;-89
2022/07/18 04:50:07;;;;;;;8.00;3.33;;;;;;;19.23;100.00;101168.97;5089601;28;20127;-89
2022/07/18 04:52:43;;;;;;;8.38;3.42;;;;;;;19.06;100.00;101164.81;5090286;28;20052;-90
2022/07/18 04:55:12;;;;;;;7.55;3.15;;;;;;;18.96;100.00;101164.53;5083968;28;20044;-90
2022/07/18 04:57:39;;;;;;;8.27;3.35;;;;;;;18.90;100.00;101162.31;5076540;28;20052;-90
2022/07/18 05:00:10;;;;;;;9.63;3.67;;;;;;;18.87;100.00;101146.59;5082881;28;20059;-90
2022/07/18 05:02:44;;;;;;;8.07;3.28;;;;;;;19.00;100.00;101147.50;5087929;28;20406;-89
2022/07/18 05:05:13;;;;;;;8.10;3.20;;;;;;;19.10;100.00;101153.84;5090915;28;20044;-89
2022/07/18 05:07:42;;;;;;;11.32;3.97;;;;;;;19.09;100.00;101130.94;5088380;28;20056;-89
2022/07/18 05:10:12;;;;;;;10.55;3.30;;;;;;;19.24;100.00;101146.78;5082268;28;20082;-88
2022/07/18 05:12:40;;;;;;;7.93;3.10;;;;;;;19.24;100.00;101150.28;5087611;28;20513;-89
2022/07/18 05:15:10;;;;;;;9.00;3.03;;;;;;;19.08;100.00;101141.66;5078789;28;20036;-89
2022/07/18 05:17:37;;;;;;;9.00;3.55;;;;;;;19.28;100.00;101149.13;5080712;28;20058;-89
2022/07/18 05:20:05;;;;;;;8.68;3.47;;;;;;;19.26;100.00;101144.88;5079983;28;20051;-89
2022/07/18 05:22:33;;;;;;;8.88;3.25;;;;;;;19.41;100.00;101141.19;5080175;28;20049;-89
2022/07/18 05:25:01;;;;;;;8.57;2.90;;;;;;;19.69;100.00;101153.41;5075076;28;20044;-89
2022/07/18 05:27:28;;;;;;;9.13;3.50;;;;;;;19.79;100.00;101160.75;5085087;28;20130;-88
2022/07/18 05:29:54;;;;;;;7.78;3.15;;;;;;;19.73;100.00;101154.03;5091210;28;20060;-89
2022/07/18 05:32:21;;;;;;;8.85;3.50;;;;;;;19.87;100.00;101153.13;5091698;28;20058;-89
2022/07/18 05:34:48;;;;;;;8.43;3.08;;;;;;;19.96;100.00;101144.50;5089595;28;20044;-88
2022/07/18 05:37:15;;;;;;;8.75;3.50;;;;;;;19.63;100.00;101148.50;5091295;28;20048;-88
2022/07/18 05:39:41;;;;;;;8.02;3.15;;;;;;;19.71;100.00;101148.00;5087356;28;20482;-87
2022/07/18 05:42:08;;;;;;;10.40;4.35;;;;;;;19.88;100.00;101150.38;5079874;28;20050;-87
2022/07/18 05:44:35;;;;;;;9.10;4.15;;;;;;;19.56;100.00;101139.25;5089226;28;20040;-88
2022/07/18 05:47:02;;;;;;;9.85;3.75;;;;;;;19.60;100.00;101140.78;5087178;28;20086;-88
2022/07/18 05:49:29;;;;;;;9.55;3.92;;;;;;;19.71;100.00;101148.84;5089787;28;20082;-89
2022/07/18 05:51:56;;;;;;;11.38;3.88;;;;;;;19.66;100.00;101137.69;5088766;28;20051;-87
2022/07/18 05:54:23;;;;;;;9.05;3.63;;;;;;;19.63;100.00;101143.19;5089388;28;20050;-89
2022/07/18 05:56:52;;;;;;;8.82;3.30;;;;;;;19.48;100.00;101133.66;5090443;28;20047;-89
2022/07/18 05:59:20;;;;;;;7.57;3.40;;;;;;;19.64;100.00;101152.88;5091127;28;20062;-89
2022/07/18 06:01:49;;;;;;;8.35;3.67;;;;;;;19.81;100.00;101132.28;5090172;28;20062;-89
2022/07/18 06:04:16;;;;;;;8.48;3.50;;;;;;;20.00;100.00;101142.47;5096537;28;20079;-90
2022/07/18 06:06:44;;;;;;;8.07;3.25;;;;;;;20.08;100.00;101138.31;5092852;28;20056;-89
2022/07/18 06:09:12;;;;;;;8.10;3.10;;;;;;;20.25;100.00;101150.38;5093480;28;20048;-89
2022/07/18 06:11:39;;;;;;;8.50;3.15;;;;;;;20.34;100.00;101156.84;5090882;28;20130;-89
2022/07/18 06:14:06;;;;;;;9.23;3.67;;;;;;;20.21;100.00;101132.13;5086334;28;20047;-90
2022/07/18 06:16:33;;;;;;;8.68;3.50;;;;;;;20.16;100.00;101132.44;5087000;28;20082;-89
2022/07/18 06:19:03;;;;;;;8.85;3.30;;;;;;;20.65;100.00;101130.72;5088688;28;20130;-90
2022/07/18 06:21:30;;;;;;;9.30;3.40;;;;;;;21.41;100.00;101149.84;5088912;28;20044;-91
2022/07/18 06:23:57;;;;;;;9.63;3.80;;;;;;;21.23;100.00;101144.97;5089321;28;20500;-91
2022/07/18 06:26:24;;;;;;;12.07;4.07;;;;;;;20.88;100.00;101138.81;5094472;28;20040;-91
2022/07/18 06:28:50;;;;;;;8.48;3.20;;;;;;;21.43;100.00;101138.09;5092386;28;20051;-91
2022/07/18 06:31:17;;;;;;;8.52;3.33;;;;;;;21.42;100.00;101141.75;5091528;28;20052;-90
2022/07/18 06:33:44;;;;;;;8.23;3.47;;;;;;;22.22;100.00;101150.63;5085347;28;20044;-89
2022/07/18 06:36:11;;;;;;;8.77;3.72;;;;;;;21.73;100.00;101149.22;5091585;28;20078;-90
2022/07/18 06:38:39;;;;;;;10.18;4.53;;;;;;;22.39;100.00;101146.63;5091680;28;20388;-90
2022/07/18 06:41:07;;;;;;;10.15;4.43;;;;;;;23.36;100.00;101151.16;5082599;28;20044;-90
2022/07/18 06:43:37;;;;;;;9.20;4.00;;;;;;;23.53;100.00;101150.53;5091481;28;20051;-91
2022/07/18 06:46:04;;;;;;;10.07;4.25;;;;;;;23.90;100.00;101167.91;5087299;28;20055;-91
2022/07/18 06:48:33;;;;;;;9.05;4.47;;;;;;;23.79;100.00;101150.09;5090559;28;20492;-91
2022/07/18 06:51:05;;;;;;;8.73;3.78;;;;;;;23.49;100.00;101162.47;5087776;28;20048;-91
2022/07/18 06:53:32;;;;;;;12.98;4.20;;;;;;;24.06;100.00;101161.09;5081682;28;20059;-91
2022/07/18 06:56:02;;;;;;;10.60;4.20;;;;;;;23.73;100.00;101156.84;5102508;28;20490;-91
2022/07/18 06:58:33;;;;;;;7.93;3.40;;;;;;;23.79;100.00;101158.97;5082447;28;20040;-91
2022/07/18 07:01:00;;;;;;;9.85;3.75;;;;;;;24.01;100.00;101149.97;5089379;28;20080;-90
2022/07/18 07:03:27;;;;;;;9.30;3.92;;;;;;;24.11;100.00;101160.69;5087787;28;20041;-91
2022/07/18 07:05:54;;;;;;;7.55;3.08;;;;;;;24.87;100.00;101161.97;5092847;28;20047;-90
2022/07/18 07:08:21;;;;;;;9.35;3.75;;;;;;;25.12;100.00;101153.34;5094544;28;20051;-90
2022/07/18 07:10:48;;;;;;;9.15;3.80;;;;;;;25.07;99.03;101109.25;5095469;28;20512;-91
2022/07/18 07:13:15;;;;;;;9.07;3.78;;;;;;;25.17;97.22;101112.75;5096373;28;20107;-92
2022/07/18 07:15:44;;;;;;;8.98;3.78;;;;;;;25.29;91.41;101134.91;5097609;28;20044;-90
2022/07/18 07:18:11;;;;;;;8.60;3.50;;;;;;;25.75;87.25;101133.22;5096725;28;20052;-91
2022/07/18 07:20:38;;;;;;;8.45;3.70;;;;;;;25.21;84.30;101122.19;5095025;28;20083;-91
2022/07/18 07:23:07;;;;;;;9.25;3.97;;;;;;;25.68;80.57;101087.38;5097571;28;20123;-90
2022/07/18 07:25:35;;;;;;;9.93;4.43;;;;;;;25.87;77.81;101136.53;5100034;28;20044;-90
2022/07/18 07:28:05;;;;;;;8.65;3.80;;;;;;;25.60;81.30;101118.59;5094299;28;20055;-90
2022/07/18 07:30:35;;;;;;;8.50;3.20;;;;;;;25.60;73.98;101123.97;5102716;28;20050;-91
2022/07/18 07:33:02;;;;;;;9.95;3.50;;;;;;;25.01;68.83;101124.06;5109999;28;20076;-90
2022/07/18 07:35:30;;;;;;;8.52;3.20;;;;;;;24.66;66.99;101079.94;5107131;28;20043;-91
2022/07/18 07:37:59;;;;;;;11.88;3.00;;;;;;;25.32;65.84;101097.94;5098889;28;20079;-91
2022/07/18 07:40:28;;;;;;;12.45;3.75;;;;;;;25.67;67.17;101106.28;5101088;28;20138;-91
2022/07/18 07:43:06;;;;;;;8.55;3.25;;;;;;;25.05;68.88;101095.97;5100719;28;20101;-90
2022/07/18 07:45:34;;;;;;;8.52;3.05;;;;;;;25.87;69.02;101134.72;5088916;28;20088;-92
2022/07/18 07:48:03;;;;;;;7.22;2.88;;;;;;;26.68;64.90;101139.38;5107403;28;20387;-93
2022/07/18 07:50:43;;;;;;;9.98;3.90;;;;;;;26.77;61.25;101123.34;5105921;28;20052;-92
2022/07/18 07:53:12;;;;;;;9.63;4.13;;;;;;;27.27;60.30;101098.56;5107714;28;20063;-91
2022/07/18 07:55:47;;;;;;;11.93;4.25;;;;;;;27.04;58.50;101092.84;5106243;28;20040;-91
2022/07/18 07:58:14;;;;;;;8.35;3.35;;;;;;;27.48;55.36;101108.09;5122194;28;20165;-91
2022/07/18 08:00:55;;;;;;;10.35;3.13;;;;;;;27.89;55.95;101133.34;5101234;28;20048;-89
2022/07/18 08:03:22;;;;;;;9.10;3.83;;;;;;;26.42;58.42;101111.53;5094672;28;20047;-91
2022/07/18 08:05:50;;;;;;;9.95;3.85;;;;;;;26.76;59.65;101105.53;5084374;28;20048;-89
2022/07/18 08:08:18;;;;;;;9.63;3.90;;;;;;;27.02;58.70;101119.00;5092687;28;20044;-91
2022/07/18 08:10:47;;;;;;;13.25;4.00;;;;;;;26.49;61.80;101126.91;5102931;28;20058;-91
2022/07/18 08:13:15;;;;;;;11.88;5.72;;;;;;;26.33;63.59;101145.53;5099503;28;20147;-91
2022/07/18 08:15:42;;;;;;;13.85;6.35;;;;;;;26.21;64.51;101115.38;5091237;28;20051;-88
2022/07/18 08:18:10;;;;;;;9.82;4.22;;;;;;;26.48;62.11;101143.16;5101134;28;20091;-87
2022/07/18 08:20:37;;;;;;;12.55;4.22;;;;;;;26.95;57.59;101104.50;5102362;28;20127;-88
2022/07/18 08:23:10;;;;;;;11.75;5.15;;;;;;;27.16;57.39;101137.28;5105009;28;20082;-88
2022/07/18 08:25:41;;;;;;;11.50;3.95;;;;;;;27.52;52.87;101112.16;5120161;28;20108;-90
2022/07/18 08:28:08;;;;;;;9.55;3.38;;;;;;;27.01;50.88;101136.97;5121197;28;20119;-90
2022/07/18 08:30:37;;;;;;;9.23;3.88;;;;;;;26.64;49.84;101112.97;5121168;28;20485;-90
2022/07/18 08:33:07;;;;;;;9.63;3.65;;;;;;;25.99;51.44;101115.78;5121991;28;20048;-89
2022/07/18 08:35:36;;;;;;;9.48;3.65;;;;;;;25.91;54.09;101135.28;5089186;28;20439;-89
2022/07/18 08:38:04;;;;;;;11.05;3.83;;;;;;;25.94;52.61;101143.03;5082885;28;20054;-89
2022/07/18 08:40:35;;;;;;;9.65;3.33;;;;;;;26.39;53.00;101127.97;5083667;28;20100;-90
2022/07/18 08:43:02;;;;;;;9.27;3.92;;;;;;;26.21;51.90;101114.53;5084306;28;20048;-89
2022/07/18 08:45:51;;;;;;;9.13;3.75;;;;;;;25.72;55.60;101128.97;5084731;28;20055;-89
2022/07/18 08:48:19;;;;;;;9.23;3.97;;;;;;;25.12;54.30;101139.13;5084675;28;20052;-89
2022/07/18 08:51:00;;;;;;;8.40;3.42;;;;;;;25.15;54.75;101120.94;5084840;28;20121;-90
2022/07/18 08:53:30;;;;;;;9.90;3.83;;;;;;;25.36;53.58;101122.63;5085564;28;20068;-90
2022/07/18 08:55:58;;;;;;;11.40;3.45;;;;;;;24.76;54.57;101085.31;5085369;28;20048;-89
2022/07/18 08:58:25;;;;;;;11.15;4.07;;;;;;;24.73;54.78;101112.38;5082930;28;20060;-90
2022/07/18 09:01:12;;;;;;;8.60;3.53;;;;;;;24.89;55.26;101119.84;5098548;28;20052;-90
2022/07/18 09:03:42;;;;;;;7.55;2.85;;;;;;;25.45;53.28;101139.69;5106296;28;20063;-90
2022/07/18 09:06:23;;;;;;;12.88;4.60;;;;;;;25.20;54.33;101129.38;5102456;28;20063;-91
2022/07/18 09:09:03;;;;;;;9.90;3.75;;;;;;;25.29;56.47;101157.19;5102962;28;20107;-89
2022/07/18 09:11:31;;;;;;;9.10;3.80;;;;;;;25.08;57.85;101121.66;5103084;28;20055;-90
2022/07/18 09:14:30;;;;;;;10.07;4.55;;;;;;;24.74;59.72;101117.59;5105335;28;20039;-90
2022/07/18 09:17:16;;;;;;;11.23;4.00;;;;;;;24.75;60.71;101110.38;5104482;28;20040;-90
2022/07/18 09:20:16;;;;;;;10.05;3.63;;;;;;;24.68;60.90;101136.03;5104094;28;20032;-90
2022/07/18 09:22:50;;;;;;;11.13;4.35;;;;;;;24.20;61.34;101109.03;5099989;28;20071;-91
2022/07/18 09:25:20;;;;;;;9.65;3.80;;;;;;;25.14;60.81;101142.50;5083443;28;20087;-91
2022/07/18 09:28:09;;;;;;;9.38;4.05;;;;;;;24.99;61.80;101126.03;5089137;28;20048;-91
2022/07/18 09:30:36;;;;;;;9.13;3.92;;;;;;;25.26;60.33;101152.09;5084312;28;20059;-91
2022/07/18 09:33:10;;;;;;;8.80;3.75;;;;;;;24.73;62.04;101093.63;5083196;28;20147;-90
2022/07/18 09:35:45;;;;;;;9.82;3.92;;;;;;;24.62;61.45;101035.72;5084155;28;20409;-89
2022/07/18 09:38:21;;;;;;;9.95;3.80;;;;;;;25.15;60.49;101096.81;5105168;28;20166;-90
2022/07/18 09:40:52;;;;;;;10.95;3.90;;;;;;;24.93;60.79;101108.72;5103390;28;20075;-90
2022/07/18 09:43:22;;;;;;;10.65;4.53;;;;;;;25.23;60.73;101135.44;5105666;28;20105;-91
2022/07/18 09:46:04;;;;;;;9.63;4.25;;;;;;;24.82;60.99;101108.84;5104460;28;20052;-92
2022/07/18 09:48:34;;;;;;;11.18;4.07;;;;;;;25.16;60.76;101101.19;5122033;28;20133;-92
2022/07/18 09:51:17;;;;;;;8.68;3.72;;;;;;;25.10;60.12;101025.91;5092540;28;20052;-91
2022/07/18 09:54:00;;;;;;;12.27;3.95;;;;;;;25.19;61.76;101082.13;5083434;28;20040;-91
2022/07/18 09:56:42;;;;;;;10.13;4.05;;;;;;;25.00;60.48;101098.25;5083867;28;20048;-91
2022/07/18 09:59:10;;;;;;;9.15;3.88;;;;;;;24.36;64.30;101028.22;5103836;28;20052;-92
2022/07/18 10:01:52;;;;;;;9.75;3.75;;;;;;;25.00;62.97;101071.47;5101583;28;20091;-92
2022/07/18 10:04:33;;;;;;;9.38;3.97;;;;;;;25.48;63.37;101065.19;5103915;28;20048;-91
2022/07/18 10:07:02;;;;;;;10.10;3.97;;;;;;;25.37;57.97;101109.09;5087795;28;20076;-92
2022/07/18 10:09:31;;;;;;;10.02;3.70;;;;;;;24.75;58.77;101038.09;5104064;28;20126;-90
2022/07/18 10:12:00;;;;;;;10.77;4.30;;;;;;;24.99;57.24;101051.03;5105190;28;20083;-92
2022/07/18 10:14:41;;;;;;;8.65;3.67;;;;;;;25.42;57.12;101032.75;5106213;28;20048;-92
2022/07/18 10:17:11;;;;;;;9.75;3.83;;;;;;;24.51;59.64;100972.44;5106902;28;20058;-91
2022/07/18 10:19:40;;;;;;;9.52;4.35;;;;;;;25.06;59.05;100992.38;5106489;28;20498;-90
2022/07/18 10:22:21;;;;;;;9.70;3.95;;;;;;;24.99;58.90;100990.25;5106899;28;20052;-90
2022/07/18 10:25:05;;;;;;;9.35;3.78;;;;;;;24.73;62.62;100991.88;5107036;28;20101;-91
2022/07/18 10:27:59;;;;;;;10.48;4.57;;;;;;;24.96;63.97;101070.06;5103023;28;20131;-91
2022/07/18 10:30:49;;;;;;;10.93;3.88;;;;;;;24.96;64.42;101113.75;5106406;28;20043;-91
2022/07/18 10:33:47;;;;;;;8.90;3.40;;;;;;;23.92;65.46;100995.69;5107205;28;20048;-91
2022/07/18 10:36:27;;;;;;;10.63;4.18;;;;;;;24.56;69.02;101045.16;5088187;28;20068;-91
2022/07/18 10:39:22;;;;;;;11.20;4.75;;;;;;;24.67;70.30;101044.19;5103181;28;20071;-89
2022/07/18 10:41:54;;;;;;;12.75;5.25;;;;;;;24.97;70.77;101125.34;5105399;28;20134;-91
2022/07/18 10:44:29;;;;;;;11.95;4.50;;;;;;;25.42;73.47;101113.16;5085931;28;20096;-92
2022/07/18 10:47:12;;;;;;;11.25;4.10;;;;;;;25.05;71.48;101009.44;5082932;28;20064;-92
2022/07/18 10:49:53;;;;;;;;;;;;;;;25.32;75.03;101111.34;5085951;28;20084;-92
2022/07/18 10:52:35;;;;;;;13.50;4.78;;;;;;;25.07;71.85;101112.75;5085223;28;20393;-92
2022/07/18 10:55:21;;;;;;;11.85;4.25;;;;;;;24.87;74.41;101101.22;5084345;28;20052;-91
2022/07/18 10:58:05;;;;;;;10.63;3.75;;;;;;;25.37;73.90;101117.13;5084376;28;20078;-92
2022/07/18 11:00:49;;;;;;;10.68;3.75;;;;;;;25.09;74.26;101078.66;5085122;28;20059;-92
2022/07/18 11:03:21;;;;;;;9.85;4.35;;;;;;;24.69;72.75;101011.91;5085264;28;20053;-92
2022/07/18 11:06:02;;;;;;;10.73;4.40;;;;;;;25.10;73.62;101034.78;5084589;28;20052;-92
2022/07/18 11:08:43;;;;;;;11.40;5.00;;;;;;;25.31;72.64;101050.69;5102785;28;20052;-92
2022/07/18 11:11:24;;;;;;;11.30;4.93;;;;;;;25.28;71.73;101037.56;5104254;28;20432;-91
2022/07/18 11:14:04;;;;;;;10.75;4.70;;;;;;;25.30;70.03;101019.53;5105233;28;20048;-91
2022/07/18 11:17:04;;;;;;;12.00;4.10;;;;;;;26.67;68.61;101075.09;5102796;28;20052;-92
2022/07/18 11:20:23;;;;;;;12.05;4.40;;;;;;;25.99;70.07;101107.72;5108910;28;20100;-91
2022/07/18 11:22:52;;;;;;;10.23;5.28;;;;;;;25.16;73.42;101111.06;5109435;28;20136;-91
2022/07/18 11:25:19;;;;;;;13.90;5.03;;;;;;;25.00;75.15;101063.41;5108094;28;20434;-91
2022/07/18 11:28:09;;;;;;;9.95;4.72;;;;;;;24.68;78.01;101055.72;5092023;28;20109;-91
2022/07/18 11:30:38;;;;;;;12.40;5.15;;;;;;;25.29;76.25;101070.59;5088082;28;20071;-90
2022/07/18 11:33:26;;;;;;;11.32;4.57;;;;;;;25.56;74.28;101085.88;5094526;28;20101;-87